sensor_id;sensor_type;location;lat;lon;timestamp;P1;durP1;ratioP1;P2;durP2;ratioP2
20022;SDS011;10172;42.054;24.546;2022-10-16T00:01:19;4.32;;;3.35;;
20022;SDS011;10172;42.054;24.546;2022-10-16T00:03:47;3.80;;;3.03;;
20022;SDS011;10172;42.054;24.546;2022-10-16T00:06:14;5.63;;;2.78;;
20022;SDS011;10172;42.054;24.546;2022-10-16T00:08:41;4.70;;;2.78;;
20022;SDS011;10172;42.054;24.546;2022-10-16T00:11:11;3.70;;;2.78;;
20022;SDS011;10172;42.054;24.546;2022-10-16T00:13:40;4.18;;;2.65;;
20022;SDS011;10172;42.054;24.546;2022-10-16T00:16:06;5.30;;;2.70;;
20022;SDS011;10172;42.054;24.546;2022-10-16T00:18:32;4.45;;;2.72;;
20022;SDS011;10172;42.054;24.546;2022-10-16T00:21:05;3.25;;;2.53;;
20022;SDS011;10172;42.054;24.546;2022-10-16T00:23:32;4.05;;;2.60;;
20022;SDS011;10172;42.054;24.546;2022-10-16T00:25:59;4.07;;;2.80;;
20022;SDS011;10172;42.054;24.546;2022-10-16T00:28:27;4.30;;;2.97;;
20022;SDS011;10172;42.054;24.546;2022-10-16T00:30:53;5.35;;;2.90;;
20022;SDS011;10172;42.054;24.546;2022-10-16T00:33:19;4.10;;;2.55;;
20022;SDS011;10172;42.054;24.546;2022-10-16T00:35:45;3.35;;;2.60;;
20022;SDS011;10172;42.054;24.546;2022-10-16T00:38:11;3.92;;;2.60;;
20022;SDS011;10172;42.054;24.546;2022-10-16T00:40:36;4.40;;;2.47;;
20022;SDS011;10172;42.054;24.546;2022-10-16T00:43:02;4.32;;;2.80;;
20022;SDS011;10172;42.054;24.546;2022-10-16T00:45:27;3.80;;;2.70;;
20022;SDS011;10172;42.054;24.546;2022-10-16T00:47:53;3.88;;;2.53;;
20022;SDS011;10172;42.054;24.546;2022-10-16T00:50:39;4.32;;;2.88;;
20022;SDS011;10172;42.054;24.546;2022-10-16T00:53:08;5.20;;;3.17;;
20022;SDS011;10172;42.054;24.546;2022-10-16T00:55:35;7.03;;;3.05;;
20022;SDS011;10172;42.054;24.546;2022-10-16T00:58:01;4.10;;;2.40;;
20022;SDS011;10172;42.054;24.546;2022-10-16T01:00:26;4.72;;;2.90;;
20022;SDS011;10172;42.054;24.546;2022-10-16T01:02:56;4.70;;;2.95;;
20022;SDS011;10172;42.054;24.546;2022-10-16T01:05:31;3.70;;;2.80;;
20022;SDS011;10172;42.054;24.546;2022-10-16T01:11:21;4.38;;;2.67;;
20022;SDS011;10172;42.054;24.546;2022-10-16T01:13:55;4.50;;;2.75;;
20022;SDS011;10172;42.054;24.546;2022-10-16T01:19:05;4.28;;;3.03;;
20022;SDS011;10172;42.054;24.546;2022-10-16T01:21:40;4.07;;;2.88;;
20022;SDS011;10172;42.054;24.546;2022-10-16T01:24:17;4.03;;;2.80;;
20022;SDS011;10172;42.054;24.546;2022-10-16T01:29:40;6.90;;;3.20;;
20022;SDS011;10172;42.054;24.546;2022-10-16T01:32:13;5.00;;;3.50;;
20022;SDS011;10172;42.054;24.546;2022-10-16T01:34:47;5.32;;;3.00;;
20022;SDS011;10172;42.054;24.546;2022-10-16T01:37:18;4.13;;;2.92;;
20022;SDS011;10172;42.054;24.546;2022-10-16T01:39:51;3.97;;;3.05;;
20022;SDS011;10172;42.054;24.546;2022-10-16T01:42:21;5.55;;;3.42;;
20022;SDS011;10172;42.054;24.546;2022-10-16T01:44:53;6.35;;;3.47;;
20022;SDS011;10172;42.054;24.546;2022-10-16T01:47:22;5.53;;;3.50;;
20022;SDS011;10172;42.054;24.546;2022-10-16T01:49:50;3.30;;;2.38;;
20022;SDS011;10172;42.054;24.546;2022-10-16T01:52:19;3.67;;;2.83;;
20022;SDS011;10172;42.054;24.546;2022-10-16T01:54:49;3.72;;;2.88;;
20022;SDS011;10172;42.054;24.546;2022-10-16T01:57:19;4.13;;;2.97;;
20022;SDS011;10172;42.054;24.546;2022-10-16T01:59:47;3.72;;;2.80;;
20022;SDS011;10172;42.054;24.546;2022-10-16T02:02:17;7.10;;;2.90;;
20022;SDS011;10172;42.054;24.546;2022-10-16T02:07:29;5.28;;;3.13;;
20022;SDS011;10172;42.054;24.546;2022-10-16T02:09:55;4.57;;;3.00;;
20022;SDS011;10172;42.054;24.546;2022-10-16T02:12:23;3.78;;;2.90;;
20022;SDS011;10172;42.054;24.546;2022-10-16T02:14:52;4.88;;;3.30;;
20022;SDS011;10172;42.054;24.546;2022-10-16T02:17:18;5.28;;;3.20;;
20022;SDS011;10172;42.054;24.546;2022-10-16T02:19:44;4.90;;;2.85;;
20022;SDS011;10172;42.054;24.546;2022-10-16T02:22:32;4.22;;;2.92;;
20022;SDS011;10172;42.054;24.546;2022-10-16T02:25:21;5.35;;;3.05;;
20022;SDS011;10172;42.054;24.546;2022-10-16T02:30:39;4.57;;;3.25;;
20022;SDS011;10172;42.054;24.546;2022-10-16T02:33:10;5.18;;;3.03;;
20022;SDS011;10172;42.054;24.546;2022-10-16T02:35:38;4.47;;;2.95;;
20022;SDS011;10172;42.054;24.546;2022-10-16T02:38:06;5.10;;;3.38;;
20022;SDS011;10172;42.054;24.546;2022-10-16T02:40:33;4.47;;;3.33;;
20022;SDS011;10172;42.054;24.546;2022-10-16T02:42:59;5.18;;;3.30;;
20022;SDS011;10172;42.054;24.546;2022-10-16T02:45:25;4.40;;;3.33;;
20022;SDS011;10172;42.054;24.546;2022-10-16T02:47:50;6.57;;;3.03;;
20022;SDS011;10172;42.054;24.546;2022-10-16T02:50:16;3.55;;;3.03;;
20022;SDS011;10172;42.054;24.546;2022-10-16T02:52:41;3.15;;;2.78;;
20022;SDS011;10172;42.054;24.546;2022-10-16T02:55:07;6.35;;;3.30;;
20022;SDS011;10172;42.054;24.546;2022-10-16T02:57:33;4.72;;;3.03;;
20022;SDS011;10172;42.054;24.546;2022-10-16T02:59:58;4.70;;;3.20;;
20022;SDS011;10172;42.054;24.546;2022-10-16T03:02:24;5.47;;;3.53;;
20022;SDS011;10172;42.054;24.546;2022-10-16T03:04:50;4.35;;;3.20;;
20022;SDS011;10172;42.054;24.546;2022-10-16T03:07:15;4.53;;;3.33;;
20022;SDS011;10172;42.054;24.546;2022-10-16T03:09:41;6.38;;;3.42;;
20022;SDS011;10172;42.054;24.546;2022-10-16T03:12:06;4.22;;;3.42;;
20022;SDS011;10172;42.054;24.546;2022-10-16T03:14:32;5.32;;;3.33;;
20022;SDS011;10172;42.054;24.546;2022-10-16T03:16:57;4.82;;;3.45;;
20022;SDS011;10172;42.054;24.546;2022-10-16T03:19:23;5.75;;;3.05;;
20022;SDS011;10172;42.054;24.546;2022-10-16T03:21:49;5.43;;;3.45;;
20022;SDS011;10172;42.054;24.546;2022-10-16T03:24:15;6.60;;;3.53;;
20022;SDS011;10172;42.054;24.546;2022-10-16T03:26:40;6.85;;;3.65;;
20022;SDS011;10172;42.054;24.546;2022-10-16T03:29:05;4.03;;;3.03;;
20022;SDS011;10172;42.054;24.546;2022-10-16T03:31:31;5.20;;;3.47;;
20022;SDS011;10172;42.054;24.546;2022-10-16T03:33:57;5.35;;;3.47;;
20022;SDS011;10172;42.054;24.546;2022-10-16T03:36:22;4.85;;;3.80;;
20022;SDS011;10172;42.054;24.546;2022-10-16T03:38:48;6.28;;;3.67;;
20022;SDS011;10172;42.054;24.546;2022-10-16T03:41:13;5.65;;;3.47;;
20022;SDS011;10172;42.054;24.546;2022-10-16T03:43:39;5.93;;;3.65;;
20022;SDS011;10172;42.054;24.546;2022-10-16T03:46:04;5.63;;;3.33;;
20022;SDS011;10172;42.054;24.546;2022-10-16T03:48:30;6.13;;;3.55;;
20022;SDS011;10172;42.054;24.546;2022-10-16T03:50:55;5.68;;;3.58;;
20022;SDS011;10172;42.054;24.546;2022-10-16T03:53:21;5.55;;;3.15;;
20022;SDS011;10172;42.054;24.546;2022-10-16T03:55:46;8.70;;;4.10;;
20022;SDS011;10172;42.054;24.546;2022-10-16T03:58:12;4.70;;;3.38;;
20022;SDS011;10172;42.054;24.546;2022-10-16T04:00:41;4.95;;;3.60;;
20022;SDS011;10172;42.054;24.546;2022-10-16T04:03:07;6.68;;;3.45;;
20022;SDS011;10172;42.054;24.546;2022-10-16T04:05:33;4.95;;;3.47;;
20022;SDS011;10172;42.054;24.546;2022-10-16T04:07:58;6.78;;;3.50;;
20022;SDS011;10172;42.054;24.546;2022-10-16T04:10:23;6.72;;;3.03;;
20022;SDS011;10172;42.054;24.546;2022-10-16T04:12:49;4.38;;;3.20;;
20022;SDS011;10172;42.054;24.546;2022-10-16T04:15:14;6.32;;;3.92;;
20022;SDS011;10172;42.054;24.546;2022-10-16T04:17:40;5.50;;;3.50;;
20022;SDS011;10172;42.054;24.546;2022-10-16T04:20:05;4.20;;;3.05;;
20022;SDS011;10172;42.054;24.546;2022-10-16T04:22:31;5.38;;;3.42;;
20022;SDS011;10172;42.054;24.546;2022-10-16T04:24:56;5.13;;;3.05;;
20022;SDS011;10172;42.054;24.546;2022-10-16T04:27:22;4.72;;;3.28;;
20022;SDS011;10172;42.054;24.546;2022-10-16T04:29:47;5.82;;;3.42;;
20022;SDS011;10172;42.054;24.546;2022-10-16T04:32:13;4.85;;;3.47;;
20022;SDS011;10172;42.054;24.546;2022-10-16T04:34:39;6.28;;;3.40;;
20022;SDS011;10172;42.054;24.546;2022-10-16T04:37:05;7.10;;;3.75;;
20022;SDS011;10172;42.054;24.546;2022-10-16T04:39:30;5.13;;;3.50;;
20022;SDS011;10172;42.054;24.546;2022-10-16T04:41:56;5.75;;;3.63;;
20022;SDS011;10172;42.054;24.546;2022-10-16T04:44:21;5.53;;;3.97;;
20022;SDS011;10172;42.054;24.546;2022-10-16T04:46:47;4.82;;;3.58;;
20022;SDS011;10172;42.054;24.546;2022-10-16T04:49:15;4.97;;;3.38;;
20022;SDS011;10172;42.054;24.546;2022-10-16T04:51:41;4.63;;;3.50;;
20022;SDS011;10172;42.054;24.546;2022-10-16T04:54:06;6.30;;;4.05;;
20022;SDS011;10172;42.054;24.546;2022-10-16T04:56:31;6.38;;;4.03;;
20022;SDS011;10172;42.054;24.546;2022-10-16T04:58:57;10.00;;;4.03;;
20022;SDS011;10172;42.054;24.546;2022-10-16T05:01:23;4.75;;;3.42;;
20022;SDS011;10172;42.054;24.546;2022-10-16T05:03:48;4.32;;;3.25;;
20022;SDS011;10172;42.054;24.546;2022-10-16T05:06:13;4.50;;;3.50;;
20022;SDS011;10172;42.054;24.546;2022-10-16T05:08:39;6.68;;;3.88;;
20022;SDS011;10172;42.054;24.546;2022-10-16T05:11:04;6.32;;;4.00;;
20022;SDS011;10172;42.054;24.546;2022-10-16T05:13:30;5.68;;;3.90;;
20022;SDS011;10172;42.054;24.546;2022-10-16T05:15:55;6.32;;;4.10;;
20022;SDS011;10172;42.054;24.546;2022-10-16T05:18:22;6.40;;;3.47;;
20022;SDS011;10172;42.054;24.546;2022-10-16T05:20:47;8.25;;;4.00;;
20022;SDS011;10172;42.054;24.546;2022-10-16T05:23:13;5.93;;;3.60;;
20022;SDS011;10172;42.054;24.546;2022-10-16T05:25:38;5.68;;;4.15;;
20022;SDS011;10172;42.054;24.546;2022-10-16T05:28:03;6.57;;;4.88;;
20022;SDS011;10172;42.054;24.546;2022-10-16T05:30:29;6.68;;;4.40;;
20022;SDS011;10172;42.054;24.546;2022-10-16T05:32:54;6.57;;;4.30;;
20022;SDS011;10172;42.054;24.546;2022-10-16T05:35:20;6.05;;;3.80;;
20022;SDS011;10172;42.054;24.546;2022-10-16T05:37:46;7.18;;;4.10;;
20022;SDS011;10172;42.054;24.546;2022-10-16T05:40:12;7.63;;;3.80;;
20022;SDS011;10172;42.054;24.546;2022-10-16T05:42:39;7.57;;;3.40;;
20022;SDS011;10172;42.054;24.546;2022-10-16T05:45:05;5.50;;;3.42;;
20022;SDS011;10172;42.054;24.546;2022-10-16T05:47:31;6.43;;;4.18;;
20022;SDS011;10172;42.054;24.546;2022-10-16T05:49:57;4.95;;;3.63;;
20022;SDS011;10172;42.054;24.546;2022-10-16T05:52:22;5.72;;;3.85;;
20022;SDS011;10172;42.054;24.546;2022-10-16T05:54:48;8.32;;;4.15;;
20022;SDS011;10172;42.054;24.546;2022-10-16T05:57:13;6.93;;;3.95;;
20022;SDS011;10172;42.054;24.546;2022-10-16T05:59:39;7.35;;;3.92;;
20022;SDS011;10172;42.054;24.546;2022-10-16T06:02:04;8.75;;;4.47;;
20022;SDS011;10172;42.054;24.546;2022-10-16T06:04:30;7.35;;;4.50;;
20022;SDS011;10172;42.054;24.546;2022-10-16T06:06:58;10.13;;;4.57;;
20022;SDS011;10172;42.054;24.546;2022-10-16T06:09:25;7.43;;;4.15;;
20022;SDS011;10172;42.054;24.546;2022-10-16T06:11:51;7.85;;;5.28;;
20022;SDS011;10172;42.054;24.546;2022-10-16T06:14:16;7.05;;;4.55;;
20022;SDS011;10172;42.054;24.546;2022-10-16T06:16:42;12.93;;;5.32;;
20022;SDS011;10172;42.054;24.546;2022-10-16T06:19:07;10.93;;;6.15;;
20022;SDS011;10172;42.054;24.546;2022-10-16T06:21:34;11.05;;;5.97;;
20022;SDS011;10172;42.054;24.546;2022-10-16T06:24:00;8.88;;;5.40;;
20022;SDS011;10172;42.054;24.546;2022-10-16T06:26:26;10.95;;;6.32;;
20022;SDS011;10172;42.054;24.546;2022-10-16T06:28:53;7.35;;;4.95;;
20022;SDS011;10172;42.054;24.546;2022-10-16T06:31:23;9.55;;;4.72;;
20022;SDS011;10172;42.054;24.546;2022-10-16T06:33:52;8.38;;;5.13;;
20022;SDS011;10172;42.054;24.546;2022-10-16T06:36:19;9.55;;;5.30;;
20022;SDS011;10172;42.054;24.546;2022-10-16T06:38:45;7.60;;;5.60;;
20022;SDS011;10172;42.054;24.546;2022-10-16T06:41:15;8.85;;;5.88;;
20022;SDS011;10172;42.054;24.546;2022-10-16T06:43:43;9.70;;;6.10;;
20022;SDS011;10172;42.054;24.546;2022-10-16T06:46:10;7.72;;;5.78;;
20022;SDS011;10172;42.054;24.546;2022-10-16T06:48:39;8.38;;;5.68;;
20022;SDS011;10172;42.054;24.546;2022-10-16T06:51:06;7.82;;;5.60;;
20022;SDS011;10172;42.054;24.546;2022-10-16T06:53:33;6.03;;;4.75;;
20022;SDS011;10172;42.054;24.546;2022-10-16T06:56:33;8.48;;;5.55;;
20022;SDS011;10172;42.054;24.546;2022-10-16T06:58:52;9.88;;;5.47;;
20022;SDS011;10172;42.054;24.546;2022-10-16T07:01:19;6.68;;;4.90;;
20022;SDS011;10172;42.054;24.546;2022-10-16T07:03:46;6.10;;;4.63;;
20022;SDS011;10172;42.054;24.546;2022-10-16T07:06:13;5.22;;;3.95;;
20022;SDS011;10172;42.054;24.546;2022-10-16T07:08:42;7.22;;;4.80;;
20022;SDS011;10172;42.054;24.546;2022-10-16T07:11:09;6.32;;;4.40;;
20022;SDS011;10172;42.054;24.546;2022-10-16T07:13:37;6.68;;;4.10;;
20022;SDS011;10172;42.054;24.546;2022-10-16T07:16:11;6.65;;;4.13;;
20022;SDS011;10172;42.054;24.546;2022-10-16T07:18:38;7.35;;;4.53;;
20022;SDS011;10172;42.054;24.546;2022-10-16T07:21:06;7.63;;;4.25;;
20022;SDS011;10172;42.054;24.546;2022-10-16T07:23:33;4.57;;;3.35;;
20022;SDS011;10172;42.054;24.546;2022-10-16T07:25:59;7.00;;;4.28;;
20022;SDS011;10172;42.054;24.546;2022-10-16T07:28:25;7.15;;;4.30;;
20022;SDS011;10172;42.054;24.546;2022-10-16T07:30:50;5.88;;;4.28;;
20022;SDS011;10172;42.054;24.546;2022-10-16T07:33:16;6.47;;;4.32;;
20022;SDS011;10172;42.054;24.546;2022-10-16T07:35:48;6.00;;;3.80;;
20022;SDS011;10172;42.054;24.546;2022-10-16T07:38:15;9.82;;;5.00;;
20022;SDS011;10172;42.054;24.546;2022-10-16T07:40:40;5.80;;;3.88;;
20022;SDS011;10172;42.054;24.546;2022-10-16T07:43:06;7.30;;;3.80;;
20022;SDS011;10172;42.054;24.546;2022-10-16T07:45:31;5.43;;;3.17;;
20022;SDS011;10172;42.054;24.546;2022-10-16T07:47:56;5.38;;;3.85;;
20022;SDS011;10172;42.054;24.546;2022-10-16T07:50:22;4.05;;;3.17;;
20022;SDS011;10172;42.054;24.546;2022-10-16T07:52:47;8.15;;;3.65;;
20022;SDS011;10172;42.054;24.546;2022-10-16T07:55:13;6.07;;;3.97;;
20022;SDS011;10172;42.054;24.546;2022-10-16T07:57:38;7.78;;;5.20;;
20022;SDS011;10172;42.054;24.546;2022-10-16T08:00:04;5.00;;;3.72;;
20022;SDS011;10172;42.054;24.546;2022-10-16T08:02:30;6.53;;;4.10;;
20022;SDS011;10172;42.054;24.546;2022-10-16T08:04:56;5.03;;;3.60;;
20022;SDS011;10172;42.054;24.546;2022-10-16T08:07:21;7.90;;;4.10;;
20022;SDS011;10172;42.054;24.546;2022-10-16T08:09:49;5.72;;;3.88;;
20022;SDS011;10172;42.054;24.546;2022-10-16T08:12:16;6.03;;;3.90;;
20022;SDS011;10172;42.054;24.546;2022-10-16T08:14:41;6.25;;;3.72;;
20022;SDS011;10172;42.054;24.546;2022-10-16T08:17:07;5.60;;;3.90;;
20022;SDS011;10172;42.054;24.546;2022-10-16T08:19:32;5.78;;;3.67;;
20022;SDS011;10172;42.054;24.546;2022-10-16T08:21:59;4.97;;;3.63;;
20022;SDS011;10172;42.054;24.546;2022-10-16T08:24:25;5.63;;;4.20;;
20022;SDS011;10172;42.054;24.546;2022-10-16T08:26:53;6.97;;;4.60;;
20022;SDS011;10172;42.054;24.546;2022-10-16T08:29:19;5.70;;;4.03;;
20022;SDS011;10172;42.054;24.546;2022-10-16T08:31:44;5.25;;;3.92;;
20022;SDS011;10172;42.054;24.546;2022-10-16T08:34:10;7.05;;;4.85;;
20022;SDS011;10172;42.054;24.546;2022-10-16T08:36:35;6.75;;;3.75;;
20022;SDS011;10172;42.054;24.546;2022-10-16T08:39:01;5.25;;;3.60;;
20022;SDS011;10172;42.054;24.546;2022-10-16T08:49:25;10.48;;;4.03;;
20022;SDS011;10172;42.054;24.546;2022-10-16T08:51:51;6.28;;;3.38;;
20022;SDS011;10172;42.054;24.546;2022-10-16T08:56:48;5.10;;;3.67;;
20022;SDS011;10172;42.054;24.546;2022-10-16T08:59:13;7.95;;;3.97;;
20022;SDS011;10172;42.054;24.546;2022-10-16T09:01:44;5.60;;;3.83;;
20022;SDS011;10172;42.054;24.546;2022-10-16T09:04:24;7.93;;;3.60;;
20022;SDS011;10172;42.054;24.546;2022-10-16T09:17:59;5.00;;;3.53;;
20022;SDS011;10172;42.054;24.546;2022-10-16T09:23:14;7.00;;;3.35;;
20022;SDS011;10172;42.054;24.546;2022-10-16T09:25:43;4.93;;;3.63;;
20022;SDS011;10172;42.054;24.546;2022-10-16T09:28:10;4.65;;;3.28;;
20022;SDS011;10172;42.054;24.546;2022-10-16T09:30:36;5.97;;;3.28;;
20022;SDS011;10172;42.054;24.546;2022-10-16T09:33:04;5.90;;;3.33;;
20022;SDS011;10172;42.054;24.546;2022-10-16T09:35:41;5.25;;;3.70;;
20022;SDS011;10172;42.054;24.546;2022-10-16T09:38:09;6.40;;;4.40;;
20022;SDS011;10172;42.054;24.546;2022-10-16T09:40:48;8.25;;;3.47;;
20022;SDS011;10172;42.054;24.546;2022-10-16T09:46:00;9.77;;;3.83;;
20022;SDS011;10172;42.054;24.546;2022-10-16T09:48:31;6.78;;;4.07;;
20022;SDS011;10172;42.054;24.546;2022-10-16T09:51:02;6.28;;;3.70;;
20022;SDS011;10172;42.054;24.546;2022-10-16T09:53:39;4.63;;;3.55;;
20022;SDS011;10172;42.054;24.546;2022-10-16T09:56:07;4.45;;;3.50;;
20022;SDS011;10172;42.054;24.546;2022-10-16T09:58:35;4.60;;;3.50;;
20022;SDS011;10172;42.054;24.546;2022-10-16T10:01:00;6.00;;;3.63;;
20022;SDS011;10172;42.054;24.546;2022-10-16T10:03:33;5.03;;;3.22;;
20022;SDS011;10172;42.054;24.546;2022-10-16T10:06:04;8.43;;;3.33;;
20022;SDS011;10172;42.054;24.546;2022-10-16T10:08:41;6.15;;;3.67;;
20022;SDS011;10172;42.054;24.546;2022-10-16T10:11:17;6.13;;;3.42;;
20022;SDS011;10172;42.054;24.546;2022-10-16T10:13:42;7.20;;;3.97;;
20022;SDS011;10172;42.054;24.546;2022-10-16T10:16:08;7.05;;;3.75;;
20022;SDS011;10172;42.054;24.546;2022-10-16T10:18:34;8.95;;;5.25;;
20022;SDS011;10172;42.054;24.546;2022-10-16T10:20:59;5.05;;;3.13;;
20022;SDS011;10172;42.054;24.546;2022-10-16T10:23:29;7.97;;;3.08;;
20022;SDS011;10172;42.054;24.546;2022-10-16T10:26:15;4.95;;;3.28;;
20022;SDS011;10172;42.054;24.546;2022-10-16T10:31:33;4.47;;;2.55;;
20022;SDS011;10172;42.054;24.546;2022-10-16T10:34:43;3.35;;;2.17;;
20022;SDS011;10172;42.054;24.546;2022-10-16T10:37:24;8.07;;;2.80;;
20022;SDS011;10172;42.054;24.546;2022-10-16T10:40:11;4.85;;;2.47;;
20022;SDS011;10172;42.054;24.546;2022-10-16T10:43:01;4.25;;;2.83;;
20022;SDS011;10172;42.054;24.546;2022-10-16T10:45:38;6.53;;;2.88;;
20022;SDS011;10172;42.054;24.546;2022-10-16T10:51:13;4.22;;;2.47;;
20022;SDS011;10172;42.054;24.546;2022-10-16T10:53:55;3.72;;;2.70;;
20022;SDS011;10172;42.054;24.546;2022-10-16T11:02:30;5.30;;;2.50;;
20022;SDS011;10172;42.054;24.546;2022-10-16T11:07:57;3.55;;;2.10;;
20022;SDS011;10172;42.054;24.546;2022-10-16T11:15:58;4.68;;;2.33;;
20022;SDS011;10172;42.054;24.546;2022-10-16T11:18:33;4.68;;;2.45;;
20022;SDS011;10172;42.054;24.546;2022-10-16T11:21:34;3.88;;;2.30;;
20022;SDS011;10172;42.054;24.546;2022-10-16T11:24:06;4.25;;;2.10;;
20022;SDS011;10172;42.054;24.546;2022-10-16T11:26:42;3.55;;;2.22;;
20022;SDS011;10172;42.054;24.546;2022-10-16T11:29:13;2.72;;;2.10;;
20022;SDS011;10172;42.054;24.546;2022-10-16T11:31:49;3.58;;;2.38;;
20022;SDS011;10172;42.054;24.546;2022-10-16T11:39:48;3.40;;;1.95;;
20022;SDS011;10172;42.054;24.546;2022-10-16T11:45:11;5.00;;;2.33;;
20022;SDS011;10172;42.054;24.546;2022-10-16T11:47:41;3.60;;;1.88;;
20022;SDS011;10172;42.054;24.546;2022-10-16T11:50:17;3.42;;;2.00;;
20022;SDS011;10172;42.054;24.546;2022-10-16T11:53:09;3.65;;;2.13;;
20022;SDS011;10172;42.054;24.546;2022-10-16T11:55:41;4.03;;;2.20;;
20022;SDS011;10172;42.054;24.546;2022-10-16T11:58:17;4.63;;;2.30;;
20022;SDS011;10172;42.054;24.546;2022-10-16T12:04:06;2.85;;;1.80;;
20022;SDS011;10172;42.054;24.546;2022-10-16T12:06:37;1.60;;;1.50;;
20022;SDS011;10172;42.054;24.546;2022-10-16T12:09:21;3.17;;;1.48;;
20022;SDS011;10172;42.054;24.546;2022-10-16T12:11:50;5.13;;;1.73;;
20022;SDS011;10172;42.054;24.546;2022-10-16T12:14:18;2.55;;;1.50;;
20022;SDS011;10172;42.054;24.546;2022-10-16T12:16:56;2.80;;;1.50;;
20022;SDS011;10172;42.054;24.546;2022-10-16T12:19:25;3.20;;;1.73;;
20022;SDS011;10172;42.054;24.546;2022-10-16T12:21:59;2.22;;;1.60;;
20022;SDS011;10172;42.054;24.546;2022-10-16T12:27:01;2.70;;;1.60;;
20022;SDS011;10172;42.054;24.546;2022-10-16T12:32:26;3.22;;;1.30;;
20022;SDS011;10172;42.054;24.546;2022-10-16T12:34:57;2.75;;;1.48;;
20022;SDS011;10172;42.054;24.546;2022-10-16T12:37:25;1.50;;;1.20;;
20022;SDS011;10172;42.054;24.546;2022-10-16T12:42:49;2.33;;;1.40;;
20022;SDS011;10172;42.054;24.546;2022-10-16T12:47:51;2.90;;;1.40;;
20022;SDS011;10172;42.054;24.546;2022-10-16T12:53:01;2.60;;;1.48;;
20022;SDS011;10172;42.054;24.546;2022-10-16T12:55:42;1.10;;;1.00;;
20022;SDS011;10172;42.054;24.546;2022-10-16T12:58:33;2.38;;;1.20;;
20022;SDS011;10172;42.054;24.546;2022-10-16T13:01:12;2.92;;;1.23;;
20022;SDS011;10172;42.054;24.546;2022-10-16T13:04:10;4.03;;;1.58;;
20022;SDS011;10172;42.054;24.546;2022-10-16T13:06:39;2.20;;;1.25;;
20022;SDS011;10172;42.054;24.546;2022-10-16T13:23:17;5.90;;;2.45;;
20022;SDS011;10172;42.054;24.546;2022-10-16T13:26:14;3.90;;;1.90;;
20022;SDS011;10172;42.054;24.546;2022-10-16T13:28:48;3.47;;;1.60;;
20022;SDS011;10172;42.054;24.546;2022-10-16T13:31:18;6.95;;;2.30;;
20022;SDS011;10172;42.054;24.546;2022-10-16T13:33:50;3.83;;;2.33;;
20022;SDS011;10172;42.054;24.546;2022-10-16T13:36:24;3.22;;;1.60;;
20022;SDS011;10172;42.054;24.546;2022-10-16T13:41:35;3.30;;;1.60;;
20022;SDS011;10172;42.054;24.546;2022-10-16T13:44:01;6.43;;;1.55;;
20022;SDS011;10172;42.054;24.546;2022-10-16T13:46:26;3.10;;;1.60;;
20022;SDS011;10172;42.054;24.546;2022-10-16T13:48:58;5.47;;;2.30;;
20022;SDS011;10172;42.054;24.546;2022-10-16T13:51:25;2.88;;;1.70;;
20022;SDS011;10172;42.054;24.546;2022-10-16T13:53:51;3.45;;;1.90;;
20022;SDS011;10172;42.054;24.546;2022-10-16T13:56:21;3.70;;;2.53;;
20022;SDS011;10172;42.054;24.546;2022-10-16T13:59:04;3.05;;;1.73;;
20022;SDS011;10172;42.054;24.546;2022-10-16T14:01:41;3.30;;;1.80;;
20022;SDS011;10172;42.054;24.546;2022-10-16T14:04:09;4.30;;;2.03;;
20022;SDS011;10172;42.054;24.546;2022-10-16T14:06:40;4.47;;;2.42;;
20022;SDS011;10172;42.054;24.546;2022-10-16T14:09:08;9.60;;;4.93;;
20022;SDS011;10172;42.054;24.546;2022-10-16T14:11:48;2.75;;;1.88;;
20022;SDS011;10172;42.054;24.546;2022-10-16T14:14:16;5.72;;;3.20;;
20022;SDS011;10172;42.054;24.546;2022-10-16T14:16:42;4.10;;;2.42;;
20022;SDS011;10172;42.054;24.546;2022-10-16T14:19:18;6.18;;;3.58;;
20022;SDS011;10172;42.054;24.546;2022-10-16T14:21:47;4.00;;;2.00;;
20022;SDS011;10172;42.054;24.546;2022-10-16T14:24:13;3.20;;;2.45;;
20022;SDS011;10172;42.054;24.546;2022-10-16T14:26:51;4.28;;;2.45;;
20022;SDS011;10172;42.054;24.546;2022-10-16T14:29:19;6.63;;;3.00;;
20022;SDS011;10172;42.054;24.546;2022-10-16T14:31:59;4.47;;;2.15;;
20022;SDS011;10172;42.054;24.546;2022-10-16T14:34:34;3.63;;;2.22;;
20022;SDS011;10172;42.054;24.546;2022-10-16T14:37:07;9.65;;;5.00;;
20022;SDS011;10172;42.054;24.546;2022-10-16T14:39:40;4.35;;;2.50;;
20022;SDS011;10172;42.054;24.546;2022-10-16T14:42:11;4.72;;;2.40;;
20022;SDS011;10172;42.054;24.546;2022-10-16T14:44:41;3.58;;;2.08;;
20022;SDS011;10172;42.054;24.546;2022-10-16T14:47:12;2.85;;;1.67;;
20022;SDS011;10172;42.054;24.546;2022-10-16T14:49:41;4.55;;;2.55;;
20022;SDS011;10172;42.054;24.546;2022-10-16T14:52:11;3.35;;;1.52;;
20022;SDS011;10172;42.054;24.546;2022-10-16T14:54:37;2.95;;;2.03;;
20022;SDS011;10172;42.054;24.546;2022-10-16T14:57:03;4.18;;;1.85;;
20022;SDS011;10172;42.054;24.546;2022-10-16T15:05:24;2.70;;;1.65;;
20022;SDS011;10172;42.054;24.546;2022-10-16T15:07:51;2.72;;;1.70;;
20022;SDS011;10172;42.054;24.546;2022-10-16T15:10:18;10.05;;;5.65;;
20022;SDS011;10172;42.054;24.546;2022-10-16T15:12:46;2.83;;;1.90;;
20022;SDS011;10172;42.054;24.546;2022-10-16T15:15:22;3.13;;;1.95;;
20022;SDS011;10172;42.054;24.546;2022-10-16T15:17:55;5.93;;;2.08;;
20022;SDS011;10172;42.054;24.546;2022-10-16T15:20:22;3.03;;;1.85;;
20022;SDS011;10172;42.054;24.546;2022-10-16T15:22:49;3.20;;;1.65;;
20022;SDS011;10172;42.054;24.546;2022-10-16T15:25:30;2.63;;;1.77;;
20022;SDS011;10172;42.054;24.546;2022-10-16T15:27:57;2.65;;;1.55;;
20022;SDS011;10172;42.054;24.546;2022-10-16T15:30:24;2.67;;;1.73;;
20022;SDS011;10172;42.054;24.546;2022-10-16T15:32:50;3.13;;;1.80;;
20022;SDS011;10172;42.054;24.546;2022-10-16T15:35:16;6.75;;;3.95;;
20022;SDS011;10172;42.054;24.546;2022-10-16T15:37:41;14.23;;;6.88;;
20022;SDS011;10172;42.054;24.546;2022-10-16T15:40:08;10.32;;;6.00;;
20022;SDS011;10172;42.054;24.546;2022-10-16T15:42:34;11.68;;;6.88;;
20022;SDS011;10172;42.054;24.546;2022-10-16T15:45:00;6.72;;;3.20;;
20022;SDS011;10172;42.054;24.546;2022-10-16T15:47:25;4.25;;;2.25;;
20022;SDS011;10172;42.054;24.546;2022-10-16T15:49:51;6.70;;;3.40;;
20022;SDS011;10172;42.054;24.546;2022-10-16T15:52:16;5.90;;;2.78;;
20022;SDS011;10172;42.054;24.546;2022-10-16T15:54:42;9.50;;;4.50;;
20022;SDS011;10172;42.054;24.546;2022-10-16T15:57:08;9.40;;;4.00;;
20022;SDS011;10172;42.054;24.546;2022-10-16T15:59:33;4.13;;;2.50;;
20022;SDS011;10172;42.054;24.546;2022-10-16T16:01:59;2.88;;;2.20;;
20022;SDS011;10172;42.054;24.546;2022-10-16T16:04:24;4.80;;;2.70;;
20022;SDS011;10172;42.054;24.546;2022-10-16T16:06:50;3.90;;;2.05;;
20022;SDS011;10172;42.054;24.546;2022-10-16T16:09:15;3.75;;;2.00;;
20022;SDS011;10172;42.054;24.546;2022-10-16T16:11:40;3.47;;;1.88;;
20022;SDS011;10172;42.054;24.546;2022-10-16T16:14:06;3.50;;;2.25;;
20022;SDS011;10172;42.054;24.546;2022-10-16T16:16:32;2.63;;;1.98;;
20022;SDS011;10172;42.054;24.546;2022-10-16T16:19:03;3.30;;;1.95;;
20022;SDS011;10172;42.054;24.546;2022-10-16T16:21:32;3.67;;;2.17;;
20022;SDS011;10172;42.054;24.546;2022-10-16T16:23:58;1.83;;;1.45;;
20022;SDS011;10172;42.054;24.546;2022-10-16T16:28:51;4.10;;;2.22;;
20022;SDS011;10172;42.054;24.546;2022-10-16T16:31:18;3.10;;;2.08;;
20022;SDS011;10172;42.054;24.546;2022-10-16T16:33:43;3.95;;;1.90;;
20022;SDS011;10172;42.054;24.546;2022-10-16T16:36:10;4.28;;;1.98;;